createdAt,value
2018-11-02T00:01:08.576Z,85.23
2018-11-02T00:03:39.523Z,85.68
2018-11-02T00:06:10.525Z,85.13
2018-11-02T00:08:41.640Z,84.90
2018-11-02T00:11:13.324Z,85.08
2018-11-02T00:13:44.559Z,85.95
2018-11-02T00:16:15.826Z,86.39
2018-11-02T00:18:47.485Z,86.06
2018-11-02T00:21:18.803Z,86.29
2018-11-02T00:23:50.148Z,86.75
2018-11-02T00:26:21.066Z,87.38
2018-11-02T00:28:52.319Z,87.01
2018-11-02T00:31:23.965Z,87.34
2018-11-02T00:33:54.863Z,87.97
2018-11-02T00:36:25.994Z,87.57
2018-11-02T00:38:58.051Z,87.13
2018-11-02T00:41:29.021Z,85.99
2018-11-02T00:44:00.266Z,85.35
2018-11-02T00:46:31.452Z,85.59
2018-11-02T00:49:02.749Z,85.73
2018-11-02T00:51:33.814Z,85.06
2018-11-02T00:54:04.803Z,85.61
2018-11-02T00:56:35.851Z,86.28
2018-11-02T00:59:06.906Z,86.40
2018-11-02T01:01:38.807Z,86.76
2018-11-02T01:04:09.847Z,87.07
2018-11-02T01:06:42.012Z,86.54
2018-11-02T01:09:15.432Z,86.13
2018-11-02T01:11:46.842Z,86.32
2018-11-02T01:14:18.364Z,86.59
2018-11-02T01:16:49.328Z,85.99
2018-11-02T01:19:25.608Z,86.31
2018-11-02T01:21:56.977Z,86.58
2018-11-02T01:24:27.908Z,86.79
2018-11-02T01:26:58.979Z,86.33
2018-11-02T01:29:30.394Z,86.51
2018-11-02T01:32:01.362Z,85.94
2018-11-02T01:34:32.277Z,85.70
2018-11-02T01:37:03.252Z,85.57
2018-11-02T01:39:34.696Z,86.14
2018-11-02T01:42:06.418Z,86.78
2018-11-02T01:44:37.755Z,87.77
2018-11-02T01:47:08.894Z,87.16
2018-11-02T01:49:39.786Z,87.14
2018-11-02T01:52:10.712Z,86.69
2018-11-02T01:54:41.906Z,86.51
2018-11-02T01:57:12.808Z,86.41
2018-11-02T01:59:43.764Z,86.84
2018-11-02T02:02:14.940Z,86.73
2018-11-02T02:04:46.631Z,86.46
2018-11-02T02:07:17.512Z,86.09
2018-11-02T02:09:48.736Z,86.30
2018-11-02T02:12:19.625Z,86.46
2018-11-02T02:14:50.542Z,86.46
2018-11-02T02:17:21.455Z,86.30
2018-11-02T02:19:52.627Z,86.64
2018-11-02T02:22:23.874Z,87.23
2018-11-02T02:24:55.151Z,88.03
2018-11-02T02:27:26.070Z,87.62
2018-11-02T02:29:57.631Z,87.27
2018-11-02T02:32:28.542Z,87.68
2018-11-02T02:34:59.540Z,87.85
2018-11-02T02:37:30.399Z,87.91
2018-11-02T02:40:02.151Z,87.80
2018-11-02T02:42:33.059Z,87.37
2018-11-02T02:45:03.974Z,87.02
2018-11-02T02:47:34.904Z,87.17
2018-11-02T02:50:07.335Z,87.10
2018-11-02T02:52:38.234Z,87.37
2018-11-02T02:55:09.528Z,86.79
2018-11-02T02:57:41.012Z,86.71
2018-11-02T03:00:13.980Z,86.41
2018-11-02T03:02:45.031Z,86.66
2018-11-02T03:05:16.219Z,86.58
2018-11-02T03:07:47.379Z,86.71
2018-11-02T03:10:18.363Z,87.18
2018-11-02T03:12:50.069Z,87.04
2018-11-02T03:15:21.248Z,87.08
2018-11-02T03:17:52.422Z,87.49
2018-11-02T03:20:23.351Z,87.97
2018-11-02T03:22:54.218Z,88.05
2018-11-02T03:25:25.435Z,87.88
2018-11-02T03:27:56.614Z,87.91
2018-11-02T03:30:27.609Z,87.71
2018-11-02T03:32:58.481Z,87.94
2018-11-02T03:35:29.395Z,87.65
2018-11-02T03:38:00.334Z,88.03
2018-11-02T03:40:31.627Z,87.87
2018-11-02T03:43:02.515Z,87.71
2018-11-02T03:45:33.422Z,87.98
2018-11-02T03:48:04.593Z,87.79
2018-11-02T03:50:35.519Z,87.46
2018-11-02T03:53:06.417Z,87.34
2018-11-02T03:55:37.364Z,87.34
2018-11-02T03:58:08.231Z,87.37
2018-11-02T04:00:41.051Z,87.36
2018-11-02T04:03:12.298Z,87.19
2018-11-02T04:05:43.199Z,87.68
2018-11-02T04:08:14.086Z,87.67
2018-11-02T04:10:45.980Z,87.67
2018-11-02T04:13:16.878Z,87.41
2018-11-02T04:15:47.751Z,87.09
2018-11-02T04:18:18.690Z,87.14
2018-11-02T04:20:49.584Z,87.42
2018-11-02T04:23:20.455Z,87.41
2018-11-02T04:25:51.716Z,86.97
2018-11-02T04:28:22.548Z,86.76
2018-11-02T04:30:53.444Z,86.21
2018-11-02T04:33:24.391Z,85.53
2018-11-02T04:35:55.273Z,86.33
2018-11-02T04:38:26.166Z,87.14
2018-11-02T04:40:57.114Z,87.51
2018-11-02T04:43:28.039Z,87.51
2018-11-02T04:45:59.180Z,87.50
2018-11-02T04:48:30.126Z,87.62
2018-11-02T04:51:01.058Z,87.54
2018-11-02T04:53:32.164Z,87.81
2018-11-02T04:56:03.033Z,87.72
2018-11-02T04:58:34.231Z,87.68
2018-11-02T05:01:05.104Z,87.56
2018-11-02T05:03:35.971Z,87.68
2018-11-02T05:06:07.112Z,87.42
2018-11-02T05:08:37.981Z,87.87
2018-11-02T05:11:09.427Z,87.88
2018-11-02T05:13:40.332Z,87.41
2018-11-02T05:16:11.209Z,86.73
2018-11-02T05:18:42.376Z,86.56
2018-11-02T05:21:13.647Z,86.65
2018-11-02T05:23:44.781Z,86.64
2018-11-02T05:26:15.743Z,87.07
2018-11-02T05:28:46.835Z,87.12
2018-11-02T05:31:17.723Z,87.49
2018-11-02T05:33:48.918Z,87.55
2018-11-02T05:36:20.062Z,87.89
2018-11-02T05:38:50.950Z,88.19
2018-11-02T05:41:22.266Z,88.35
2018-11-02T05:43:53.368Z,88.67
2018-11-02T05:46:24.321Z,88.34
2018-11-02T05:48:55.273Z,88.24
2018-11-02T05:51:26.284Z,88.27
2018-11-02T05:53:57.248Z,88.14
2018-11-02T05:56:28.277Z,87.82
2018-11-02T05:59:00.131Z,87.77
2018-11-02T06:01:31.321Z,87.90
2018-11-02T06:04:02.162Z,88.15
2018-11-02T06:06:33.258Z,88.20
2018-11-02T06:09:04.618Z,87.89
2018-11-02T06:11:35.692Z,87.52
2018-11-02T06:14:06.717Z,87.71
2018-11-02T06:16:37.694Z,87.82
2018-11-02T06:19:08.785Z,87.62
2018-11-02T06:21:39.722Z,87.15
2018-11-02T06:24:10.744Z,88.08
2018-11-02T06:26:41.803Z,88.40
2018-11-02T06:29:12.840Z,88.35
2018-11-02T06:31:44.251Z,88.52
2018-11-02T06:34:15.307Z,88.23
2018-11-02T06:36:46.654Z,88.26
2018-11-02T06:39:17.606Z,88.47
2018-11-02T06:41:48.798Z,88.34
2018-11-02T06:44:19.726Z,88.14
2018-11-02T06:46:50.802Z,87.89
2018-11-02T06:49:21.841Z,87.71
2018-11-02T06:51:52.788Z,87.92
2018-11-02T06:54:23.755Z,87.75
2018-11-02T06:56:55.179Z,87.76
2018-11-02T06:59:26.315Z,87.84
2018-11-02T07:01:57.301Z,87.51
2018-11-02T07:04:28.747Z,87.76
2018-11-02T07:06:59.762Z,88.05
2018-11-02T07:09:31.172Z,87.70
2018-11-02T07:12:02.220Z,87.58
2018-11-02T07:14:33.468Z,87.71
2018-11-02T07:17:04.385Z,87.54
2018-11-02T07:19:35.662Z,86.78
2018-11-02T07:22:07.075Z,86.70
2018-11-02T07:24:38.168Z,86.20
2018-11-02T07:27:09.263Z,85.54
2018-11-02T07:29:40.267Z,85.12
2018-11-02T07:32:11.296Z,85.67
2018-11-02T07:34:42.399Z,85.25
2018-11-02T07:37:13.303Z,84.66
2018-11-02T07:39:44.366Z,85.56
2018-11-02T07:42:15.389Z,86.02
2018-11-02T07:44:46.573Z,85.67
2018-11-02T07:47:17.525Z,85.89
2018-11-02T07:49:48.916Z,85.38
2018-11-02T07:52:19.867Z,85.13
2018-11-02T07:54:51.150Z,85.03
2018-11-02T07:57:22.083Z,84.64
2018-11-02T07:59:53.066Z,84.86
2018-11-02T08:02:24.230Z,84.88
2018-11-02T08:04:55.232Z,85.20
2018-11-02T08:07:26.540Z,85.03
2018-11-02T08:09:58.012Z,84.65
2018-11-02T08:12:29.395Z,83.61
2018-11-02T08:15:00.545Z,84.00
2018-11-02T08:17:31.625Z,83.01
2018-11-02T08:20:02.592Z,82.65
2018-11-02T08:22:33.541Z,82.17
2018-11-02T08:25:04.604Z,81.46
2018-11-02T08:27:35.536Z,79.73
2018-11-02T08:30:06.965Z,79.40
2018-11-02T08:32:38.265Z,76.02
2018-11-02T08:35:12.417Z,70.16
2018-11-02T08:37:43.749Z,68.84
2018-11-02T08:40:14.946Z,69.21
2018-11-02T08:42:45.992Z,67.45
2018-11-02T08:45:17.065Z,66.68
2018-11-02T08:47:48.880Z,65.80
2018-11-02T08:50:19.899Z,64.74
2018-11-02T08:52:50.921Z,63.76
2018-11-02T08:55:22.004Z,64.21
2018-11-02T08:57:53.144Z,62.40
2018-11-02T09:00:24.036Z,62.24
2018-11-02T09:02:55.118Z,63.52
2018-11-02T09:05:26.076Z,64.06
2018-11-02T09:07:57.217Z,64.23
2018-11-02T09:10:28.174Z,65.56
2018-11-02T09:12:59.276Z,66.50
2018-11-02T09:15:31.951Z,69.03
2018-11-02T09:18:01.200Z,70.29
2018-11-02T09:20:32.470Z,69.06
2018-11-02T09:23:03.555Z,68.30
2018-11-02T09:25:34.889Z,68.84
2018-11-02T09:28:06.401Z,69.60
2018-11-02T09:30:37.408Z,68.32
2018-11-02T09:33:08.494Z,70.04
2018-11-02T09:35:39.651Z,69.12
2018-11-02T09:38:10.682Z,68.74
2018-11-02T09:40:41.624Z,66.16
2018-11-02T09:43:12.752Z,64.68
2018-11-02T09:45:43.798Z,61.59
2018-11-02T09:48:15.085Z,59.41
2018-11-02T09:50:46.126Z,57.97
2018-11-02T09:53:17.155Z,57.06
2018-11-02T09:55:48.464Z,56.16
2018-11-02T09:58:19.462Z,54.21
2018-11-02T10:00:50.901Z,52.13
2018-11-02T10:03:21.949Z,52.79
2018-11-02T10:05:52.917Z,55.77
2018-11-02T10:08:23.984Z,57.44
2018-11-02T10:10:54.971Z,58.35
2018-11-02T10:13:26.053Z,59.03
2018-11-02T10:15:57.366Z,60.43
2018-11-02T10:18:28.752Z,61.62
2018-11-02T10:20:59.706Z,64.00
2018-11-02T10:23:31.171Z,65.11
2018-11-02T10:26:02.544Z,65.68
2018-11-02T10:28:33.741Z,65.66
2018-11-02T10:31:04.976Z,65.19
2018-11-02T10:33:36.031Z,65.41
2018-11-02T10:36:08.470Z,65.58
2018-11-02T10:38:39.377Z,64.45
2018-11-02T10:41:12.358Z,64.35
2018-11-02T10:43:43.562Z,65.28
2018-11-02T10:46:14.573Z,66.12
2018-11-02T10:48:46.062Z,66.24
2018-11-02T10:51:17.455Z,67.02
2018-11-02T10:53:48.353Z,66.29
2018-11-02T10:56:19.347Z,65.10
2018-11-02T10:58:50.232Z,64.70
2018-11-02T11:01:38.390Z,62.38
2018-11-02T11:04:09.363Z,61.28
2018-11-02T11:06:40.351Z,62.54
2018-11-02T11:09:13.336Z,63.40
2018-11-02T11:11:44.531Z,63.59
2018-11-02T11:14:15.352Z,63.66
2018-11-02T11:16:46.265Z,62.88
2018-11-02T11:19:17.924Z,63.11
2018-11-02T11:21:49.010Z,62.87
2018-11-02T11:24:20.031Z,61.47
2018-11-02T11:26:51.098Z,59.59
2018-11-02T11:29:22.157Z,58.61
2018-11-02T11:31:52.966Z,57.51
2018-11-02T11:34:23.944Z,56.21
2018-11-02T11:36:54.938Z,56.31
2018-11-02T11:39:26.262Z,59.32
2018-11-02T11:41:57.511Z,62.83
2018-11-02T11:44:28.507Z,62.06
2018-11-02T11:46:59.900Z,62.38
2018-11-02T11:49:30.903Z,64.56
2018-11-02T11:52:01.795Z,66.90
2018-11-02T11:54:32.793Z,65.89
2018-11-02T11:57:03.657Z,64.36
2018-11-02T11:59:34.911Z,63.84
2018-11-02T12:02:05.996Z,65.30
2018-11-02T12:04:36.894Z,65.26
2018-11-02T12:07:07.881Z,65.09
2018-11-02T12:09:38.876Z,64.19
2018-11-02T12:12:09.997Z,65.18
2018-11-02T12:14:40.909Z,64.93
2018-11-02T12:17:12.116Z,64.68
2018-11-02T12:19:43.574Z,66.89
2018-11-02T12:22:14.626Z,64.29
2018-11-02T12:24:45.563Z,65.20
2018-11-02T12:27:16.810Z,66.43
2018-11-02T12:29:48.012Z,66.85
2018-11-02T12:32:18.960Z,64.94
2018-11-02T12:34:50.268Z,62.49
2018-11-02T12:37:21.134Z,63.34
2018-11-02T12:39:52.043Z,65.69
2018-11-02T12:42:23.327Z,66.55
2018-11-02T12:44:54.189Z,65.11
2018-11-02T12:47:25.143Z,63.84
2018-11-02T12:49:56.149Z,65.45
2018-11-02T12:52:27.020Z,63.48
2018-11-02T12:54:58.006Z,63.70
2018-11-02T12:57:28.997Z,63.04
2018-11-02T12:59:59.858Z,64.22
2018-11-02T13:02:31.505Z,63.47
2018-11-02T13:05:02.436Z,62.07
2018-11-02T13:07:33.652Z,63.64
2018-11-02T13:10:04.536Z,62.98
2018-11-02T13:12:36.338Z,61.45
2018-11-02T13:15:08.953Z,63.07
2018-11-02T13:17:40.562Z,61.38
2018-11-02T13:20:12.021Z,62.42
2018-11-02T13:22:43.737Z,62.00
2018-11-02T13:25:18.754Z,59.92
2018-11-02T13:27:50.443Z,59.92
2018-11-02T13:30:21.598Z,62.09
2018-11-02T13:32:52.507Z,61.44
2018-11-02T13:35:23.820Z,63.07
2018-11-02T13:37:54.730Z,62.88
2018-11-02T13:40:25.700Z,63.39
2018-11-02T13:42:56.970Z,64.03
2018-11-02T13:45:28.701Z,63.54
2018-11-02T13:47:59.970Z,63.75
2018-11-02T13:50:31.013Z,63.98
2018-11-02T13:53:01.863Z,62.50
2018-11-02T13:55:33.366Z,62.56
2018-11-02T13:58:04.317Z,62.18
2018-11-02T14:00:35.214Z,63.16
2018-11-02T14:03:06.230Z,62.26
2018-11-02T14:05:37.297Z,61.58
2018-11-02T14:08:08.214Z,62.19
2018-11-02T14:10:39.145Z,62.46
2018-11-02T14:13:10.421Z,61.74
2018-11-02T14:15:42.185Z,61.73
2018-11-02T14:18:13.200Z,61.33
2018-11-02T14:20:44.190Z,62.96
2018-11-02T14:23:15.117Z,63.34
2018-11-02T14:25:46.059Z,64.14
2018-11-02T14:28:17.031Z,64.27
2018-11-02T14:30:47.943Z,64.50
2018-11-02T14:33:18.900Z,64.21
2018-11-02T14:35:49.786Z,65.62
2018-11-02T14:38:20.681Z,64.16
2018-11-02T14:40:51.631Z,64.37
2018-11-02T14:43:22.536Z,64.65
2018-11-02T14:45:53.548Z,65.22
2018-11-02T14:48:24.452Z,65.13
2018-11-02T14:50:55.501Z,66.06
2018-11-02T14:53:26.469Z,66.88
2018-11-02T14:55:57.404Z,66.79
2018-11-02T14:58:28.356Z,66.32
2018-11-02T15:00:59.654Z,67.05
2018-11-02T15:03:30.663Z,66.24
2018-11-02T15:06:01.612Z,66.39
2018-11-02T15:08:32.571Z,66.58
2018-11-02T15:11:03.456Z,66.40
2018-11-02T15:13:34.371Z,66.65
2018-11-02T15:16:05.328Z,67.32
2018-11-02T15:18:36.260Z,67.32
2018-11-02T15:21:07.747Z,67.54
2018-11-02T15:23:38.791Z,67.83
2018-11-02T15:26:10.076Z,68.00
2018-11-02T15:28:41.037Z,68.01
2018-11-02T15:31:11.981Z,68.49
2018-11-02T15:33:42.997Z,69.44
2018-11-02T15:36:13.975Z,70.48
2018-11-02T15:38:45.321Z,70.97
2018-11-02T15:41:16.238Z,71.63
2018-11-02T15:43:47.226Z,72.61
2018-11-02T15:46:18.317Z,73.08
2018-11-02T15:48:49.626Z,74.05
2018-11-02T15:51:20.864Z,74.24
2018-11-02T15:53:51.794Z,74.06
2018-11-02T15:56:22.713Z,74.67
2018-11-02T15:58:53.650Z,75.70
2018-11-02T16:01:24.539Z,76.35
2018-11-02T16:03:55.442Z,76.93
2018-11-02T16:06:26.406Z,77.15
2018-11-02T16:08:57.339Z,77.35
2018-11-02T16:11:28.293Z,77.77
2018-11-02T16:13:59.195Z,78.03
2018-11-02T16:16:30.521Z,77.89
2018-11-02T16:19:01.615Z,77.95
2018-11-02T16:21:32.518Z,78.04
2018-11-02T16:24:03.527Z,77.85
2018-11-02T16:26:34.501Z,78.45
2018-11-02T16:29:05.824Z,79.10
2018-11-02T16:31:36.971Z,79.19
2018-11-02T16:34:08.017Z,79.77
2018-11-02T16:36:38.969Z,80.12
2018-11-02T16:39:13.871Z,80.58
2018-11-02T16:41:44.819Z,80.39
2018-11-02T16:44:16.005Z,80.17
2018-11-02T16:46:47.004Z,79.72
2018-11-02T16:49:17.930Z,79.75
2018-11-02T16:51:48.832Z,79.36
2018-11-02T16:54:20.172Z,79.49
2018-11-02T16:56:51.048Z,79.34
2018-11-02T16:59:21.981Z,79.03
2018-11-02T17:01:53.020Z,78.64
2018-11-02T17:04:23.960Z,78.45
2018-11-02T17:06:55.233Z,77.94
2018-11-02T17:09:26.502Z,77.91
2018-11-02T17:11:57.824Z,77.66
2018-11-02T17:14:28.790Z,77.39
2018-11-02T17:16:59.709Z,76.77
2018-11-02T17:19:30.692Z,76.83
2018-11-02T17:22:02.038Z,76.70
2018-11-02T17:24:32.911Z,77.13
2018-11-02T17:27:03.834Z,77.69
2018-11-02T17:29:35.114Z,78.09
2018-11-02T17:32:06.219Z,78.64
2018-11-02T17:34:37.136Z,78.57
2018-11-02T17:37:08.534Z,79.06
2018-11-02T17:39:39.910Z,79.80
2018-11-02T17:42:13.825Z,79.09
2018-11-02T17:44:44.853Z,79.37
2018-11-02T17:47:15.796Z,78.49
2018-11-02T17:49:46.712Z,78.46
2018-11-02T17:52:17.638Z,78.59
2018-11-02T17:54:48.599Z,78.41
2018-11-02T17:57:19.541Z,78.71
2018-11-02T17:59:50.585Z,78.50
2018-11-02T18:02:21.538Z,78.31
2018-11-02T18:04:52.843Z,78.47
2018-11-02T18:07:24.122Z,79.16
2018-11-02T18:09:55.901Z,79.25
2018-11-02T18:12:26.947Z,78.41
2018-11-02T18:14:58.259Z,77.48
2018-11-02T18:17:29.801Z,77.37
2018-11-02T18:20:01.354Z,77.01
2018-11-02T18:22:32.664Z,76.46
2018-11-02T18:25:03.642Z,76.45
2018-11-02T18:27:34.667Z,76.11
2018-11-02T18:30:06.508Z,75.77
2018-11-02T18:32:37.540Z,75.87
2018-11-02T18:35:09.310Z,76.14
2018-11-02T18:37:40.225Z,76.04
2018-11-02T18:40:13.481Z,75.62
2018-11-02T18:42:44.518Z,75.94
2018-11-02T18:45:16.171Z,75.62
2018-11-02T18:47:48.371Z,75.92
2018-11-02T18:50:20.603Z,75.37
2018-11-02T18:52:51.956Z,75.44
2018-11-02T18:55:23.219Z,75.42
2018-11-02T19:00:25.133Z,75.95
2018-11-02T19:02:56.036Z,75.77
2018-11-02T19:05:27.088Z,76.35
2018-11-02T19:07:58.297Z,76.24
2018-11-02T19:10:29.247Z,76.38
2018-11-02T19:13:00.162Z,77.16
2018-11-02T19:15:31.256Z,77.71
2018-11-02T19:18:02.148Z,78.19
2018-11-02T19:20:33.136Z,78.95
2018-11-02T19:23:04.332Z,79.43
2018-11-02T19:25:35.244Z,79.84
2018-11-02T19:28:06.172Z,80.53
2018-11-02T19:30:37.839Z,81.14
2018-11-02T19:33:08.866Z,80.67
2018-11-02T19:35:40.061Z,79.69
2018-11-02T19:38:11.209Z,79.42
2018-11-02T19:40:41.885Z,79.77
2018-11-02T19:43:12.832Z,79.17
2018-11-02T19:45:43.748Z,79.22
2018-11-02T19:48:14.705Z,78.94
2018-11-02T19:50:45.696Z,78.98
2018-11-02T19:53:16.526Z,79.21
2018-11-02T19:55:47.817Z,79.26
2018-11-02T19:58:18.707Z,78.91
2018-11-02T20:00:49.612Z,79.03
2018-11-02T20:03:20.533Z,79.07
2018-11-02T20:05:51.754Z,79.15
2018-11-02T20:08:23.096Z,79.14
2018-11-02T20:10:54.088Z,79.50
2018-11-02T20:13:25.295Z,79.69
2018-11-02T20:15:56.520Z,79.62
2018-11-02T20:18:27.426Z,79.71
2018-11-02T20:20:58.406Z,79.45
2018-11-02T20:23:29.795Z,79.71
2018-11-02T20:26:00.746Z,80.19
2018-11-02T20:28:31.647Z,80.05
2018-11-02T20:31:02.588Z,79.61
2018-11-02T20:33:33.531Z,79.12
2018-11-02T20:36:04.833Z,78.85
2018-11-02T20:38:35.778Z,78.91
2018-11-02T20:41:06.842Z,79.17
2018-11-02T20:43:37.810Z,79.58
2018-11-02T20:46:08.938Z,79.14
2018-11-02T20:48:40.298Z,79.31
2018-11-02T20:51:11.144Z,79.25
2018-11-02T20:53:42.436Z,78.87
2018-11-02T20:56:13.373Z,78.63
2018-11-02T20:58:44.279Z,78.74
2018-11-02T21:01:15.605Z,79.12
2018-11-02T21:03:46.553Z,78.52
2018-11-02T21:06:17.583Z,78.45
2018-11-02T21:08:48.599Z,78.39
2018-11-02T21:13:51.254Z,78.48
2018-11-02T21:16:22.370Z,78.36
2018-11-02T21:18:53.646Z,78.05
2018-11-02T21:21:24.600Z,78.60
2018-11-02T21:23:56.212Z,78.04
2018-11-02T21:26:27.222Z,77.95
2018-11-02T21:28:58.723Z,78.53
2018-11-02T21:31:29.649Z,78.51
2018-11-02T21:34:00.691Z,78.45
2018-11-02T21:36:31.710Z,77.82
2018-11-02T21:39:03.047Z,78.93
2018-11-02T21:41:34.368Z,78.01
2018-11-02T21:44:05.304Z,77.96
2018-11-02T21:46:36.221Z,78.11
2018-11-02T21:49:07.353Z,78.26
2018-11-02T21:51:38.331Z,78.23
2018-11-02T21:54:09.318Z,77.74
2018-11-02T21:56:40.499Z,77.23
2018-11-02T21:59:11.787Z,77.85
2018-11-02T22:01:42.714Z,78.01
2018-11-02T22:04:13.875Z,77.65
2018-11-02T22:06:44.771Z,77.77
2018-11-02T22:09:15.834Z,77.36
2018-11-02T22:11:46.791Z,77.20
2018-11-02T22:14:17.715Z,77.37
2018-11-02T22:16:48.653Z,76.84
2018-11-02T22:19:19.646Z,76.61
2018-11-02T22:21:50.508Z,76.61
2018-11-02T22:24:21.435Z,76.65
2018-11-02T22:26:52.679Z,76.59
2018-11-02T22:29:23.887Z,76.28
2018-11-02T22:31:55.245Z,76.08
2018-11-02T22:34:26.158Z,76.34
2018-11-02T22:36:57.167Z,76.36
2018-11-02T22:39:28.119Z,76.49
2018-11-02T22:41:59.105Z,75.50
2018-11-02T22:44:30.109Z,76.34
2018-11-02T22:47:01.034Z,76.44
2018-11-02T22:49:31.988Z,75.74
2018-11-02T22:52:02.972Z,76.15
2018-11-02T22:54:33.933Z,76.01
2018-11-02T22:57:04.897Z,75.96
2018-11-02T22:59:35.843Z,76.22
2018-11-02T23:02:06.951Z,76.04
2018-11-02T23:04:37.962Z,75.68
2018-11-02T23:07:09.330Z,76.05
2018-11-02T23:09:40.325Z,75.65
2018-11-02T23:12:11.395Z,75.49
2018-11-02T23:14:42.423Z,75.31
2018-11-02T23:17:13.741Z,75.05
2018-11-02T23:19:44.704Z,74.80
2018-11-02T23:22:15.593Z,74.23
2018-11-02T23:24:46.901Z,73.61
2018-11-02T23:27:17.821Z,74.15
2018-11-02T23:29:49.684Z,73.37
2018-11-02T23:32:20.932Z,73.71
2018-11-02T23:34:51.916Z,74.12
2018-11-02T23:37:22.857Z,74.06
2018-11-02T23:39:53.825Z,74.45
2018-11-02T23:42:24.796Z,74.37
2018-11-02T23:44:55.846Z,74.16
2018-11-02T23:47:26.720Z,74.28
2018-11-02T23:49:57.675Z,74.07
2018-11-02T23:52:28.617Z,74.67
2018-11-02T23:54:59.533Z,74.16
2018-11-02T23:57:30.820Z,74.65
